createdAt,value
2022-12-20T00:01:35.388Z,5.70
2022-12-20T00:04:05.812Z,5.70
2022-12-20T00:06:37.198Z,5.70
2022-12-20T00:09:07.756Z,5.70
2022-12-20T00:11:38.103Z,5.60
2022-12-20T00:14:05.663Z,5.60
2022-12-20T00:16:33.356Z,5.70
2022-12-20T00:19:02.555Z,5.60
2022-12-20T00:21:31.387Z,5.60
2022-12-20T00:23:59.279Z,5.70
2022-12-20T00:26:29.943Z,5.60
2022-12-20T00:28:58.518Z,5.70
2022-12-20T00:31:28.505Z,5.60
2022-12-20T00:33:57.778Z,5.50
2022-12-20T00:36:27.612Z,5.60
2022-12-20T00:38:56.838Z,5.70
2022-12-20T00:41:27.213Z,5.70
2022-12-20T00:43:54.827Z,5.70
2022-12-20T00:46:24.919Z,5.70
2022-12-20T00:48:54.504Z,5.70
2022-12-20T00:51:24.726Z,5.70
2022-12-20T00:53:52.944Z,5.70
2022-12-20T00:56:21.022Z,5.70
2022-12-20T00:58:49.878Z,5.70
2022-12-20T01:01:25.979Z,5.80
2022-12-20T01:03:54.662Z,5.70
2022-12-20T01:06:23.798Z,5.70
2022-12-20T01:08:52.336Z,5.70
2022-12-20T01:11:33.175Z,5.70
2022-12-20T01:14:07.046Z,5.70
2022-12-20T01:16:38.417Z,5.60
2022-12-20T01:19:07.361Z,5.60
2022-12-20T01:21:34.899Z,5.70
2022-12-20T01:24:02.487Z,5.80
2022-12-20T01:26:30.491Z,5.80
2022-12-20T01:29:00.284Z,5.70
2022-12-20T01:31:29.031Z,5.80
2022-12-20T01:33:57.349Z,5.70
2022-12-20T01:36:28.286Z,5.70
2022-12-20T01:39:02.226Z,5.70
2022-12-20T01:41:31.455Z,5.70
2022-12-20T01:44:26.328Z,5.70
2022-12-20T01:46:54.806Z,5.70
2022-12-20T01:49:27.498Z,5.80
2022-12-20T01:52:06.734Z,5.80
2022-12-20T01:54:37.550Z,5.80
2022-12-20T01:57:12.941Z,5.70
2022-12-20T01:59:43.337Z,5.80
2022-12-20T02:02:12.960Z,5.80
2022-12-20T02:04:40.672Z,5.80
2022-12-20T02:07:11.504Z,5.80
2022-12-20T02:09:39.706Z,5.80
2022-12-20T02:12:26.839Z,5.80
2022-12-20T02:15:14.269Z,5.80
2022-12-20T02:17:53.802Z,5.90
2022-12-20T02:20:27.181Z,5.90
2022-12-20T02:23:31.657Z,5.90
2022-12-20T02:26:23.601Z,5.90
2022-12-20T02:29:29.864Z,6.00
2022-12-20T02:32:19.616Z,5.90
2022-12-20T02:34:47.240Z,5.90
2022-12-20T02:37:14.716Z,5.90
2022-12-20T02:39:44.156Z,5.80
2022-12-20T02:42:14.171Z,5.70
2022-12-20T02:45:22.892Z,5.70
2022-12-20T02:48:00.721Z,5.80
2022-12-20T02:50:39.876Z,5.80
2022-12-20T02:53:08.358Z,5.80
2022-12-20T02:56:01.823Z,5.80
2022-12-20T02:58:36.310Z,5.90
2022-12-20T03:01:12.448Z,5.90
2022-12-20T03:03:40.745Z,5.80
2022-12-20T03:06:08.676Z,5.80
2022-12-20T03:08:36.662Z,5.80
2022-12-20T03:11:04.339Z,5.80
2022-12-20T03:13:33.052Z,5.80
2022-12-20T03:16:04.968Z,5.80
2022-12-20T03:18:32.720Z,5.80
2022-12-20T03:21:00.152Z,5.80
2022-12-20T03:23:27.681Z,5.80
2022-12-20T03:25:55.455Z,5.90
2022-12-20T03:28:32.377Z,5.90
2022-12-20T03:31:00.645Z,5.80
2022-12-20T03:33:28.290Z,5.90
2022-12-20T03:35:58.778Z,5.90
2022-12-20T03:38:26.270Z,5.90
2022-12-20T03:40:53.802Z,5.80
2022-12-20T03:43:22.964Z,5.80
2022-12-20T03:45:50.591Z,5.90
2022-12-20T03:48:18.766Z,5.80
2022-12-20T03:50:46.251Z,5.70
2022-12-20T03:53:13.787Z,5.70
2022-12-20T03:55:45.168Z,5.80
2022-12-20T03:58:13.875Z,5.90
2022-12-20T04:00:41.839Z,5.80
2022-12-20T04:03:29.613Z,5.70
2022-12-20T04:05:57.134Z,5.70
2022-12-20T04:08:24.847Z,5.80
2022-12-20T04:11:19.124Z,5.80
2022-12-20T04:13:55.202Z,5.90
2022-12-20T04:16:28.980Z,5.90
2022-12-20T04:18:57.296Z,5.90
2022-12-20T04:21:31.557Z,5.80
2022-12-20T04:24:01.966Z,5.90
2022-12-20T04:26:40.793Z,5.70
2022-12-20T04:29:09.089Z,5.80
2022-12-20T04:31:36.810Z,5.90
2022-12-20T04:34:04.756Z,5.80
2022-12-20T04:36:34.269Z,5.90
2022-12-20T04:39:05.431Z,5.90
2022-12-20T04:41:43.900Z,5.80
2022-12-20T04:44:13.893Z,5.90
2022-12-20T04:46:41.708Z,5.90
2022-12-20T04:49:13.139Z,6.00
2022-12-20T04:51:43.864Z,5.90
2022-12-20T04:54:12.929Z,5.80
2022-12-20T04:56:49.456Z,5.90
2022-12-20T04:59:21.038Z,5.90
2022-12-20T05:01:51.996Z,5.90
2022-12-20T05:04:42.473Z,5.90
2022-12-20T05:07:09.956Z,5.90
2022-12-20T05:09:39.301Z,5.90
2022-12-20T05:12:07.109Z,5.90
2022-12-20T05:14:34.834Z,5.90
2022-12-20T05:17:02.641Z,5.90
2022-12-20T05:19:30.344Z,6.00
2022-12-20T05:22:16.298Z,6.10
2022-12-20T05:25:14.758Z,6.00
2022-12-20T05:27:43.156Z,6.10
2022-12-20T05:30:11.253Z,6.00
2022-12-20T05:32:38.729Z,6.10
2022-12-20T05:35:06.430Z,6.20
2022-12-20T05:37:35.049Z,6.20
2022-12-20T05:40:11.939Z,6.10
2022-12-20T05:42:39.455Z,6.20
2022-12-20T05:45:07.554Z,6.10
2022-12-20T05:47:43.790Z,6.10
2022-12-20T05:50:18.485Z,6.10
2022-12-20T05:53:11.347Z,6.20
2022-12-20T05:55:46.220Z,6.20
2022-12-20T05:58:14.617Z,6.20
2022-12-20T06:00:52.701Z,6.20
2022-12-20T06:03:21.119Z,6.20
2022-12-20T06:05:49.180Z,6.20
2022-12-20T06:08:23.801Z,6.30
2022-12-20T06:10:52.839Z,6.40
2022-12-20T06:13:21.378Z,6.30
2022-12-20T06:15:51.413Z,6.40
2022-12-20T06:18:20.151Z,6.40
2022-12-20T06:20:51.445Z,6.20
2022-12-20T06:23:21.934Z,6.20
2022-12-20T06:25:58.645Z,6.10
2022-12-20T06:28:30.097Z,6.10
2022-12-20T06:30:58.725Z,6.10
2022-12-20T06:33:40.321Z,6.10
2022-12-20T06:36:08.130Z,6.10
2022-12-20T06:38:35.718Z,6.10
2022-12-20T06:41:03.612Z,6.10
2022-12-20T06:43:32.108Z,5.90
2022-12-20T06:45:59.613Z,6.10
2022-12-20T06:48:27.115Z,6.10
2022-12-20T06:50:56.301Z,6.10
2022-12-20T06:53:25.171Z,6.00
2022-12-20T06:55:52.766Z,6.00
2022-12-20T06:58:21.592Z,6.10
2022-12-20T07:00:49.711Z,6.10
2022-12-20T07:03:17.470Z,6.10
2022-12-20T07:05:45.048Z,6.00
2022-12-20T07:08:12.582Z,6.20
2022-12-20T07:10:39.962Z,6.10
2022-12-20T07:13:07.399Z,6.20
2022-12-20T07:15:35.205Z,6.10
2022-12-20T07:18:03.306Z,6.20
2022-12-20T07:20:31.430Z,6.30
2022-12-20T07:23:00.227Z,6.30
2022-12-20T07:25:28.134Z,6.30
2022-12-20T07:27:55.794Z,6.30
2022-12-20T07:30:23.549Z,6.30
2022-12-20T07:32:50.958Z,6.50
2022-12-20T07:35:18.503Z,6.60
2022-12-20T07:37:45.908Z,6.40
2022-12-20T07:40:14.943Z,6.30
2022-12-20T07:42:48.268Z,6.30
2022-12-20T07:45:16.382Z,6.20
2022-12-20T07:47:44.049Z,6.20
2022-12-20T07:50:11.972Z,6.40
2022-12-20T07:52:41.933Z,6.50
2022-12-20T07:55:10.372Z,6.60
2022-12-20T07:57:39.381Z,6.50
2022-12-20T08:00:07.459Z,6.50
2022-12-20T08:02:55.564Z,6.50
2022-12-20T08:05:24.424Z,6.60
2022-12-20T08:07:59.051Z,6.60
2022-12-20T08:10:28.675Z,6.60
2022-12-20T08:12:57.615Z,6.60
2022-12-20T08:15:25.677Z,6.60
2022-12-20T08:17:53.083Z,6.50
2022-12-20T08:20:20.946Z,6.60
2022-12-20T08:22:48.457Z,6.70
2022-12-20T08:25:15.910Z,6.80
2022-12-20T08:27:43.404Z,6.80
2022-12-20T08:30:11.693Z,6.60
2022-12-20T08:32:39.202Z,6.70
2022-12-20T08:35:07.626Z,6.80
2022-12-20T08:37:35.147Z,6.80
2022-12-20T08:40:02.570Z,6.80
2022-12-20T08:42:30.199Z,6.90
2022-12-20T08:44:57.656Z,6.80
2022-12-20T08:47:25.158Z,6.80
2022-12-20T08:49:52.558Z,6.80
2022-12-20T08:52:19.996Z,6.80
2022-12-20T08:54:47.577Z,6.80
2022-12-20T08:57:15.007Z,7.00
2022-12-20T08:59:42.461Z,6.90
2022-12-20T09:02:10.068Z,7.00
2022-12-20T09:04:37.588Z,6.90
2022-12-20T09:07:05.006Z,6.90
2022-12-20T09:09:32.472Z,7.00
2022-12-20T09:11:59.869Z,6.90
2022-12-20T09:14:27.305Z,7.00
2022-12-20T09:16:54.775Z,7.00
2022-12-20T09:19:22.220Z,7.10
2022-12-20T09:21:49.635Z,7.30
2022-12-20T09:24:17.405Z,7.30
2022-12-20T09:26:45.709Z,7.30
2022-12-20T09:29:22.966Z,7.30
2022-12-20T09:31:53.467Z,7.30
2022-12-20T09:34:20.918Z,7.40
2022-12-20T09:36:48.328Z,7.30
2022-12-20T09:39:15.732Z,7.20
2022-12-20T09:41:44.641Z,7.20
2022-12-20T09:44:15.635Z,7.50
2022-12-20T09:46:46.160Z,7.60
2022-12-20T09:49:19.633Z,7.50
2022-12-20T09:51:57.842Z,7.60
2022-12-20T09:54:49.924Z,7.60
2022-12-20T09:57:47.740Z,7.70
2022-12-20T10:00:17.447Z,7.60
2022-12-20T10:03:09.474Z,7.70
2022-12-20T10:05:46.676Z,7.60
2022-12-20T10:08:41.198Z,7.50
2022-12-20T10:11:26.666Z,7.60
2022-12-20T10:14:24.264Z,7.40
2022-12-20T10:16:56.995Z,7.80
2022-12-20T10:19:30.436Z,7.80
2022-12-20T10:22:17.525Z,7.70
2022-12-20T10:24:53.950Z,7.70
2022-12-20T10:27:22.101Z,7.60
2022-12-20T10:29:50.640Z,7.60
2022-12-20T10:32:22.236Z,7.70
2022-12-20T10:35:12.219Z,7.60
2022-12-20T10:38:06.990Z,7.50
2022-12-20T10:43:59.042Z,7.60
2022-12-20T10:46:48.872Z,7.60
2022-12-20T10:49:31.200Z,7.70
2022-12-20T10:52:00.603Z,7.80
2022-12-20T10:54:34.203Z,7.60
2022-12-20T10:57:15.027Z,7.80
2022-12-20T10:59:51.434Z,7.70
2022-12-20T11:02:36.988Z,7.80
2022-12-20T11:05:12.999Z,7.80
2022-12-20T11:10:46.335Z,7.70
2022-12-20T11:13:25.980Z,7.70
2022-12-20T11:16:01.600Z,7.90
2022-12-20T11:19:01.043Z,8.00
2022-12-20T11:21:44.765Z,7.90
2022-12-20T11:24:21.600Z,7.80
2022-12-20T11:26:49.003Z,8.10
2022-12-20T11:29:16.538Z,8.00
2022-12-20T11:32:05.122Z,8.20
2022-12-20T11:35:07.915Z,8.10
2022-12-20T11:37:46.349Z,8.30
2022-12-20T11:40:36.332Z,8.00
2022-12-20T11:43:18.222Z,8.20
2022-12-20T11:45:45.577Z,8.00
2022-12-20T11:48:36.204Z,8.10
2022-12-20T11:51:06.161Z,8.40
2022-12-20T11:54:12.377Z,8.30
2022-12-20T11:56:45.535Z,8.20
2022-12-20T11:59:13.181Z,8.30
2022-12-20T12:02:19.273Z,8.10
2022-12-20T12:05:00.145Z,8.10
2022-12-20T12:07:32.252Z,8.20
2022-12-20T12:10:06.008Z,8.30
2022-12-20T12:12:40.553Z,8.40
2022-12-20T12:15:40.290Z,8.50
2022-12-20T12:18:20.413Z,8.10
2022-12-20T12:21:18.202Z,8.40
2022-12-20T12:24:08.332Z,8.50
2022-12-20T12:26:38.880Z,8.60
2022-12-20T12:29:09.290Z,8.60
2022-12-20T12:31:43.534Z,8.50
2022-12-20T12:34:21.863Z,8.30
2022-12-20T12:37:19.711Z,8.30
2022-12-20T12:39:55.792Z,8.10
2022-12-20T12:42:41.662Z,8.20
2022-12-20T12:45:23.260Z,8.30
2022-12-20T12:47:55.912Z,8.30
2022-12-20T12:50:31.920Z,8.20
2022-12-20T12:53:14.228Z,8.10
2022-12-20T12:55:44.404Z,8.10
2022-12-20T12:58:23.656Z,8.10
2022-12-20T13:01:00.984Z,8.10
2022-12-20T13:03:46.759Z,8.10
2022-12-20T13:06:27.042Z,7.90
2022-12-20T13:08:57.226Z,8.10
2022-12-20T13:11:47.149Z,8.10
2022-12-20T13:14:24.883Z,8.10
2022-12-20T13:17:17.183Z,8.20
2022-12-20T13:19:52.618Z,8.10
2022-12-20T13:22:27.154Z,8.10
2022-12-20T13:24:59.702Z,8.20
2022-12-20T13:27:31.411Z,8.30
2022-12-20T13:30:07.620Z,8.20
2022-12-20T13:32:46.941Z,8.10
2022-12-20T13:35:29.189Z,8.10
2022-12-20T13:38:11.724Z,8.10
2022-12-20T13:40:59.269Z,8.10
2022-12-20T13:43:36.068Z,8.10
2022-12-20T13:46:13.538Z,8.10
2022-12-20T13:48:57.037Z,8.10
2022-12-20T13:51:26.851Z,8.00
2022-12-20T13:53:55.991Z,8.10
2022-12-20T13:56:49.464Z,8.00
2022-12-20T13:59:26.968Z,7.90
2022-12-20T14:01:57.655Z,7.90
2022-12-20T14:04:40.690Z,7.90
2022-12-20T14:07:12.875Z,8.00
2022-12-20T14:09:44.156Z,8.10
2022-12-20T14:12:23.447Z,8.00
2022-12-20T14:14:54.456Z,8.10
2022-12-20T14:17:23.892Z,8.00
2022-12-20T14:20:03.398Z,7.80
2022-12-20T14:22:31.872Z,8.00
2022-12-20T14:24:59.651Z,8.00
2022-12-20T14:27:31.325Z,8.10
2022-12-20T14:29:58.858Z,7.90
2022-12-20T14:32:26.880Z,8.00
2022-12-20T14:34:54.600Z,7.90
2022-12-20T14:37:25.131Z,7.90
2022-12-20T14:40:19.332Z,8.00
2022-12-20T14:42:47.239Z,7.90
2022-12-20T14:45:14.647Z,7.90
2022-12-20T14:48:15.478Z,7.90
2022-12-20T14:50:52.959Z,8.00
2022-12-20T14:53:27.606Z,7.90
2022-12-20T14:55:55.464Z,7.90
2022-12-20T14:58:34.550Z,7.80
2022-12-20T15:01:17.013Z,7.80
2022-12-20T15:03:59.298Z,7.80
2022-12-20T15:06:45.911Z,7.80
2022-12-20T15:09:13.832Z,7.90
2022-12-20T15:11:42.391Z,7.70
2022-12-20T15:14:29.938Z,7.80
2022-12-20T15:16:57.148Z,7.70
2022-12-20T15:19:24.403Z,7.80
2022-12-20T15:21:52.273Z,7.70
2022-12-20T15:24:21.920Z,7.80
2022-12-20T15:26:49.443Z,7.80
2022-12-20T15:29:17.657Z,7.80
2022-12-20T15:31:45.854Z,7.80
2022-12-20T15:34:25.374Z,7.70
2022-12-20T15:36:52.732Z,7.80
2022-12-20T15:39:21.594Z,7.70
2022-12-20T15:41:49.424Z,7.80
2022-12-20T15:44:21.124Z,7.60
2022-12-20T15:46:48.553Z,7.70
2022-12-20T15:49:17.109Z,7.80
2022-12-20T15:51:44.734Z,7.70
2022-12-20T15:54:31.513Z,7.70
2022-12-20T15:57:03.206Z,7.80
2022-12-20T16:02:23.117Z,7.80
2022-12-20T16:04:51.055Z,7.70
2022-12-20T16:07:18.366Z,7.70
2022-12-20T16:09:45.731Z,7.70
2022-12-20T16:12:26.966Z,7.80
2022-12-20T16:14:55.214Z,7.90
2022-12-20T16:17:22.551Z,7.70
2022-12-20T16:19:50.038Z,7.90
2022-12-20T16:22:22.249Z,8.00
2022-12-20T16:24:50.156Z,8.00
2022-12-20T16:27:17.500Z,7.90
2022-12-20T16:29:45.463Z,7.90
2022-12-20T16:32:19.934Z,8.00
2022-12-20T16:34:48.785Z,8.00
2022-12-20T16:37:16.230Z,7.80
2022-12-20T16:39:43.572Z,7.90
2022-12-20T16:42:14.936Z,7.90
2022-12-20T16:44:44.569Z,7.80
2022-12-20T16:47:12.172Z,7.80
2022-12-20T16:49:40.337Z,7.80
2022-12-20T16:52:15.810Z,7.80
2022-12-20T16:54:43.401Z,7.70
2022-12-20T16:57:10.616Z,7.70
2022-12-20T16:59:37.800Z,7.70
2022-12-20T17:02:12.792Z,7.80
2022-12-20T17:04:40.205Z,7.90
2022-12-20T17:07:07.400Z,7.90
2022-12-20T17:12:20.552Z,8.10
2022-12-20T17:14:48.896Z,8.10
2022-12-20T17:17:16.167Z,8.00
2022-12-20T17:19:43.527Z,8.20
2022-12-20T17:24:57.076Z,8.10
2022-12-20T17:27:24.884Z,8.10
2022-12-20T17:29:52.330Z,8.00
2022-12-20T17:32:21.156Z,8.10
2022-12-20T17:34:48.480Z,8.00
2022-12-20T17:37:16.089Z,8.00
2022-12-20T17:39:43.389Z,8.20
2022-12-20T17:42:13.987Z,8.10
2022-12-20T17:44:41.250Z,8.10
2022-12-20T17:47:08.533Z,8.10
2022-12-20T17:49:35.753Z,8.00
2022-12-20T17:52:02.937Z,8.00
2022-12-20T17:54:38.594Z,8.00
2022-12-20T17:57:06.979Z,7.90
2022-12-20T17:59:34.179Z,7.90
2022-12-20T18:02:01.487Z,7.80
2022-12-20T18:04:28.933Z,7.90
2022-12-20T18:06:57.321Z,7.90
2022-12-20T18:09:24.598Z,7.90
2022-12-20T18:11:51.817Z,7.90
2022-12-20T18:14:19.053Z,8.10
2022-12-20T18:16:46.350Z,8.00
2022-12-20T18:19:17.313Z,7.90
2022-12-20T18:21:45.145Z,8.00
2022-12-20T18:24:13.181Z,7.90
2022-12-20T18:26:40.786Z,8.00
2022-12-20T18:29:09.027Z,8.00
2022-12-20T18:31:36.301Z,8.00
2022-12-20T18:34:03.724Z,7.90
2022-12-20T18:36:32.747Z,8.00
2022-12-20T18:39:00.984Z,8.10
2022-12-20T18:41:29.895Z,8.00
2022-12-20T18:43:58.995Z,8.00
2022-12-20T18:46:26.383Z,8.10
2022-12-20T18:48:54.755Z,8.00
2022-12-20T18:51:23.432Z,8.00
2022-12-20T18:53:51.773Z,8.10
2022-12-20T18:56:20.232Z,8.10
2022-12-20T18:58:47.982Z,8.00
2022-12-20T19:01:16.592Z,7.90
2022-12-20T19:03:44.316Z,8.00
2022-12-20T19:06:12.212Z,8.00
2022-12-20T19:08:39.898Z,8.00
2022-12-20T19:11:15.120Z,8.10
2022-12-20T19:13:42.506Z,8.00
2022-12-20T19:16:23.665Z,8.10
2022-12-20T19:18:51.491Z,7.90
2022-12-20T19:21:20.564Z,7.90
2022-12-20T19:23:49.270Z,8.00
2022-12-20T19:26:17.054Z,8.00
2022-12-20T19:28:44.357Z,8.00
2022-12-20T19:31:19.264Z,7.90
2022-12-20T19:33:48.776Z,7.80
2022-12-20T19:36:17.678Z,7.80
2022-12-20T19:38:45.880Z,7.90
2022-12-20T19:41:13.238Z,7.80
2022-12-20T19:43:40.508Z,7.70
2022-12-20T19:46:13.768Z,7.70
2022-12-20T19:48:41.357Z,7.60
2022-12-20T19:51:10.197Z,7.60
2022-12-20T19:53:38.113Z,7.70
2022-12-20T19:56:07.607Z,7.70
2022-12-20T19:58:35.283Z,7.60
2022-12-20T20:01:03.916Z,7.60
2022-12-20T20:03:32.563Z,7.70
2022-12-20T20:05:59.969Z,7.60
2022-12-20T20:08:27.471Z,7.70
2022-12-20T20:10:55.671Z,7.80
2022-12-20T20:13:23.564Z,7.70
2022-12-20T20:15:55.419Z,7.70
2022-12-20T20:18:23.289Z,7.70
2022-12-20T20:20:50.480Z,7.80
2022-12-20T20:23:17.724Z,7.70
2022-12-20T20:25:46.085Z,7.80
2022-12-20T20:28:13.333Z,7.70
2022-12-20T20:30:44.875Z,7.80
2022-12-20T20:33:12.868Z,7.70
2022-12-20T20:35:40.401Z,7.70
2022-12-20T20:38:09.645Z,7.60
2022-12-20T20:40:37.099Z,7.70
2022-12-20T20:43:04.299Z,7.50
2022-12-20T20:45:31.578Z,7.60
2022-12-20T20:48:03.991Z,7.70
2022-12-20T20:50:32.966Z,7.70
2022-12-20T20:53:00.181Z,7.60
2022-12-20T20:55:27.442Z,7.60
2022-12-20T20:57:54.977Z,7.60
2022-12-20T21:00:22.275Z,7.70
2022-12-20T21:02:49.782Z,7.60
2022-12-20T21:08:07.336Z,7.60
2022-12-20T21:10:34.664Z,7.70
2022-12-20T21:13:02.590Z,7.60
2022-12-20T21:15:29.818Z,7.60
2022-12-20T21:17:57.048Z,7.60
2022-12-20T21:20:26.496Z,7.60
2022-12-20T21:22:54.073Z,7.60
2022-12-20T21:25:21.452Z,7.50
2022-12-20T21:27:48.746Z,7.50
2022-12-20T21:30:16.064Z,7.60
2022-12-20T21:32:43.365Z,7.70
2022-12-20T21:35:11.720Z,7.50
2022-12-20T21:37:39.022Z,7.50
2022-12-20T21:40:06.646Z,7.50
2022-12-20T21:42:33.944Z,7.50
2022-12-20T21:45:01.540Z,7.50
2022-12-20T21:47:28.805Z,7.50
2022-12-20T21:49:57.426Z,7.60
2022-12-20T21:52:26.043Z,7.70
2022-12-20T21:54:53.269Z,7.70
2022-12-20T21:57:20.533Z,7.70
2022-12-20T21:59:47.789Z,7.70
2022-12-20T22:02:15.199Z,7.50
2022-12-20T22:04:42.526Z,7.50
2022-12-20T22:07:09.724Z,7.60
2022-12-20T22:09:37.036Z,7.70
2022-12-20T22:12:04.416Z,7.70
2022-12-20T22:14:31.641Z,7.70
2022-12-20T22:16:58.908Z,7.70
2022-12-20T22:19:26.132Z,7.60
2022-12-20T22:21:57.896Z,7.60
2022-12-20T22:24:25.882Z,7.70
2022-12-20T22:26:53.114Z,7.80
2022-12-20T22:29:20.353Z,7.70
2022-12-20T22:31:47.639Z,7.60
2022-12-20T22:34:15.362Z,7.50
2022-12-20T22:36:43.714Z,7.50
2022-12-20T22:39:10.936Z,7.50
2022-12-20T22:41:38.506Z,7.60
2022-12-20T22:44:05.791Z,7.60
2022-12-20T22:46:33.149Z,7.70
2022-12-20T22:49:01.474Z,7.70
2022-12-20T22:51:31.036Z,7.60
2022-12-20T22:53:58.846Z,7.60
2022-12-20T22:56:26.487Z,7.50
2022-12-20T22:58:53.735Z,7.50
2022-12-20T23:01:21.212Z,7.40
2022-12-20T23:03:49.001Z,7.40
2022-12-20T23:06:18.128Z,7.40
2022-12-20T23:08:45.519Z,7.40
2022-12-20T23:11:36.842Z,7.50
2022-12-20T23:14:23.385Z,7.40
2022-12-20T23:16:50.901Z,7.40
2022-12-20T23:19:18.177Z,7.30
2022-12-20T23:22:03.739Z,7.30
2022-12-20T23:24:31.056Z,7.40
2022-12-20T23:26:58.367Z,7.40
2022-12-20T23:29:25.657Z,7.30
2022-12-20T23:31:52.973Z,7.20
2022-12-20T23:34:20.340Z,7.30
2022-12-20T23:36:47.546Z,7.30
2022-12-20T23:39:15.023Z,7.40
2022-12-20T23:41:42.303Z,7.30
2022-12-20T23:44:09.755Z,7.30
2022-12-20T23:46:36.999Z,7.30
2022-12-20T23:49:04.255Z,7.30
2022-12-20T23:51:31.609Z,7.30
2022-12-20T23:53:58.952Z,7.20
2022-12-20T23:56:26.221Z,7.20
2022-12-20T23:58:54.485Z,7.20
